Time;durP1;ratioP1;P1;durP2;ratioP2;P2;SDS_P1;SDS_P2;PMS_P1;PMS_P2;Temp;Humidity;BMP_temperature;BMP_pressure;BME280_temperature;BME280_humidity;BME280_pressure;Samples;Min_cycle;Max_cycle;Signal;HPM_P1;HPM_P2
2023/01/20 00:01:08;;;;;;;160.20;106.20;;;1.80;99.90;;;;;;5050666;28;20284;-51
2023/01/20 00:03:36;;;;;;;107.77;95.97;;;1.90;99.90;;;;;;5050196;28;20202;-51
2023/01/20 00:06:04;;;;;;;77.33;57.27;;;1.90;99.90;;;;;;5050534;28;20271;-50
2023/01/20 00:08:33;;;;;;;188.87;144.67;;;1.90;99.90;;;;;;5050515;28;20297;-51
2023/01/20 00:11:05;;;;;;;728.93;219.97;;;1.90;99.90;;;;;;5042515;28;20324;-50
2023/01/20 00:13:35;;;;;;;80.67;67.03;;;1.80;99.90;;;;;;5032889;28;20230;-51
2023/01/20 00:16:04;;;;;;;88.60;67.13;;;1.80;99.90;;;;;;5039072;28;20302;-51
2023/01/20 00:18:32;;;;;;;186.40;109.07;;;1.80;99.90;;;;;;5030253;28;20202;-50
2023/01/20 00:21:04;;;;;;;441.30;131.00;;;1.80;99.90;;;;;;5030089;28;20224;-50
2023/01/20 00:23:32;;;;;;;101.73;72.00;;;1.80;99.90;;;;;;5016454;28;20335;-51
2023/01/20 00:26:04;;;;;;;303.47;109.50;;;1.80;99.90;;;;;;5030381;28;20202;-50
2023/01/20 00:28:33;;;;;;;231.17;127.37;;;1.80;99.90;;;;;;5030023;28;20209;-51
2023/01/20 00:31:12;;;;;;;164.57;99.17;;;1.80;99.90;;;;;;5023313;28;20798;-51
2023/01/20 00:33:41;;;;;;;118.50;93.20;;;1.80;99.90;;;;;;5029916;28;20278;-51
2023/01/20 00:36:10;;;;;;;117.40;98.13;;;1.80;99.90;;;;;;5030109;28;20234;-51
2023/01/20 00:38:39;;;;;;;138.90;106.13;;;1.70;99.90;;;;;;5022399;28;20213;-51
2023/01/20 00:41:07;;;;;;;138.57;92.70;;;1.80;99.90;;;;;;5029727;28;20991;-51
2023/01/20 00:43:36;;;;;;;226.53;135.23;;;1.70;99.90;;;;;;5027914;28;20246;-50
2023/01/20 00:46:04;;;;;;;97.90;69.10;;;1.70;99.90;;;;;;5029779;28;20297;-51
2023/01/20 00:48:34;;;;;;;141.23;65.17;;;1.70;99.90;;;;;;5029773;28;20266;-51
2023/01/20 00:51:03;;;;;;;92.80;64.67;;;1.70;99.90;;;;;;5029985;28;20288;-51
2023/01/20 00:53:32;;;;;;;137.93;91.33;;;1.80;99.90;;;;;;5029318;28;20226;-50
2023/01/20 00:56:00;;;;;;;156.00;79.70;;;1.80;99.90;;;;;;5029714;28;20301;-50
2023/01/20 00:58:28;;;;;;;162.40;86.27;;;1.80;99.90;;;;;;5030097;28;20237;-51
2023/01/20 01:00:57;;;;;;;84.37;68.60;;;1.80;99.90;;;;;;5029538;28;20317;-50
2023/01/20 01:03:27;;;;;;;170.60;102.67;;;1.90;99.90;;;;;;5029226;28;20217;-51
2023/01/20 01:06:05;;;;;;;157.37;111.90;;;1.90;99.90;;;;;;5029296;28;20597;-50
2023/01/20 01:08:33;;;;;;;83.47;52.47;;;1.90;99.90;;;;;;5029633;28;20309;-51
2023/01/20 01:11:01;;;;;;;111.63;97.63;;;1.90;99.90;;;;;;5029702;28;20251;-51
2023/01/20 01:13:30;;;;;;;99.03;67.03;;;1.90;99.90;;;;;;5029443;28;20264;-51
2023/01/20 01:15:58;;;;;;;116.80;80.13;;;1.90;99.90;;;;;;5029735;28;20203;-51
2023/01/20 01:18:26;;;;;;;113.27;82.33;;;1.90;99.90;;;;;;5029399;28;20214;-51
2023/01/20 01:20:57;;;;;;;93.03;59.80;;;1.90;99.90;;;;;;5028438;28;20726;-50
2023/01/20 01:23:25;;;;;;;85.73;63.00;;;1.90;99.90;;;;;;5029256;28;20588;-50
2023/01/20 01:25:53;;;;;;;94.27;73.70;;;2.00;99.90;;;;;;5029618;28;20645;-50
2023/01/20 01:28:21;;;;;;;228.70;107.07;;;1.90;99.90;;;;;;5029498;28;20214;-51
2023/01/20 01:30:49;;;;;;;51.70;39.13;;;2.00;99.90;;;;;;5029484;28;20269;-51
2023/01/20 01:33:17;;;;;;;95.80;79.27;;;2.00;99.90;;;;;;5018102;28;20218;-50
2023/01/20 01:35:56;;;;;;;82.17;68.97;;;2.00;99.90;;;;;;5028659;28;20332;-51
2023/01/20 01:38:25;;;;;;;205.67;105.20;;;2.00;99.90;;;;;;5029604;28;20611;-51
2023/01/20 01:40:55;;;;;;;185.57;78.27;;;1.90;99.90;;;;;;5035475;28;20317;-50
2023/01/20 01:43:24;;;;;;;66.53;53.63;;;1.90;99.90;;;;;;5028383;28;20749;-51
2023/01/20 01:45:53;;;;;;;69.50;58.17;;;1.90;99.90;;;;;;5029099;28;20300;-50
2023/01/20 01:48:23;;;;;;;70.20;57.53;;;1.80;99.90;;;;;;5028899;28;20701;-53
2023/01/20 01:50:55;;;;;;;114.80;79.57;;;1.90;99.90;;;;;;5028650;28;20672;-53
2023/01/20 01:53:26;;;;;;;111.07;83.87;;;1.90;99.90;;;;;;5028051;28;20241;-53
2023/01/20 01:55:58;;;;;;;151.73;98.73;;;1.90;99.90;;;;;;5031187;28;20305;-53
2023/01/20 01:58:29;;;;;;;110.50;87.30;;;1.90;99.90;;;;;;5032902;28;20251;-53
2023/01/20 02:00:58;;;;;;;137.07;117.77;;;1.90;99.90;;;;;;5032682;28;20661;-53
2023/01/20 02:03:31;;;;;;;71.80;50.77;;;1.90;99.90;;;;;;5032698;28;20216;-53
2023/01/20 02:06:00;;;;;;;119.93;107.00;;;1.90;99.90;;;;;;5032460;28;20206;-53
2023/01/20 02:08:30;;;;;;;91.93;67.67;;;2.00;99.90;;;;;;5035006;28;20213;-53
2023/01/20 02:10:58;;;;;;;117.70;87.93;;;1.90;99.90;;;;;;5051894;28;20235;-53
2023/01/20 02:13:26;;;;;;;123.87;110.30;;;1.90;99.90;;;;;;5049439;28;20254;-53
2023/01/20 02:16:05;;;;;;;68.77;54.13;;;1.90;99.90;;;;;;5050131;28;20660;-53
2023/01/20 02:18:44;;;;;;;77.80;65.63;;;1.90;99.90;;;;;;5040867;28;20205;-53
2023/01/20 02:21:47;;;;;;;100.27;85.30;;;1.90;99.90;;;;;;5052699;28;20272;-53
2023/01/20 02:25:00;;;;;;;133.03;117.53;;;1.90;99.90;;;;;;5031042;28;20943;-53
2023/01/20 02:27:49;;;;;;;93.40;83.13;;;1.90;99.90;;;;;;5010994;28;20242;-53
2023/01/20 02:30:49;;;;;;;157.50;141.67;;;1.90;99.90;;;;;;5052612;28;20790;-51
2023/01/20 02:33:24;;;;;;;129.53;105.13;;;1.90;99.90;;;;;;5031632;28;20978;-51
2023/01/20 02:35:57;;;;;;;79.40;61.10;;;1.80;99.90;;;;;;5043707;28;20225;-50
2023/01/20 02:38:32;;;;;;;136.37;115.67;;;1.80;99.90;;;;;;5049805;28;20217;-50
2023/01/20 02:41:07;;;;;;;94.97;84.77;;;1.90;99.90;;;;;;5025972;28;20338;-50
2023/01/20 02:43:42;;;;;;;66.77;54.50;;;1.90;99.90;;;;;;5051905;28;20209;-50
2023/01/20 02:46:15;;;;;;;70.10;58.87;;;1.90;99.90;;;;;;5052371;28;20297;-50
2023/01/20 02:48:51;;;;;;;132.90;119.13;;;1.90;99.90;;;;;;5043838;28;20630;-51
2023/01/20 02:51:24;;;;;;;63.07;47.50;;;1.90;99.90;;;;;;5051914;28;20718;-51
2023/01/20 02:53:55;;;;;;;82.93;73.10;;;1.80;99.90;;;;;;5051754;28;20237;-50
2023/01/20 02:56:27;;;;;;;120.87;108.13;;;1.90;99.90;;;;;;5051769;28;20280;-52
2023/01/20 02:58:58;;;;;;;180.10;95.10;;;1.90;99.90;;;;;;5052288;28;20237;-51
2023/01/20 03:01:31;;;;;;;114.10;76.10;;;1.90;99.90;;;;;;5035945;28;20201;-51
2023/01/20 03:04:03;;;;;;;68.80;60.50;;;1.80;99.90;;;;;;5034637;28;20575;-50
2023/01/20 03:06:35;;;;;;;126.93;113.57;;;1.80;99.90;;;;;;5024501;28;20301;-51
2023/01/20 03:09:07;;;;;;;99.20;87.77;;;1.80;99.90;;;;;;5019558;28;20322;-51
2023/01/20 03:11:38;;;;;;;79.43;70.57;;;1.90;99.90;;;;;;5031826;28;20302;-50
2023/01/20 03:14:10;;;;;;;75.77;60.73;;;1.90;99.90;;;;;;5019358;28;20302;-51
2023/01/20 03:16:54;;;;;;;84.90;76.13;;;2.00;99.90;;;;;;5008135;28;20221;-50
2023/01/20 03:19:23;;;;;;;81.53;67.30;;;1.90;99.90;;;;;;5031256;28;20733;-50
2023/01/20 03:21:52;;;;;;;110.87;92.50;;;1.90;99.90;;;;;;5031039;28;20310;-51
2023/01/20 03:24:22;;;;;;;127.57;78.10;;;1.80;99.90;;;;;;5031032;28;20226;-51
2023/01/20 03:26:50;;;;;;;154.17;88.63;;;1.80;99.90;;;;;;5031349;28;20241;-51
2023/01/20 03:29:18;;;;;;;66.47;49.83;;;1.80;99.90;;;;;;5031153;28;20253;-51
2023/01/20 03:31:50;;;;;;;89.87;70.60;;;1.80;99.90;;;;;;5031085;28;20734;-51
2023/01/20 03:34:21;;;;;;;109.23;88.87;;;1.80;99.90;;;;;;5021575;28;20695;-51
2023/01/20 03:36:53;;;;;;;124.20;85.30;;;1.80;99.90;;;;;;5029913;28;20296;-50
2023/01/20 03:39:22;;;;;;;121.97;109.33;;;1.80;99.90;;;;;;5029860;28;20315;-51
2023/01/20 03:42:01;;;;;;;64.70;47.97;;;1.80;99.90;;;;;;5030797;28;20214;-50
2023/01/20 03:44:39;;;;;;;68.93;52.77;;;1.80;99.90;;;;;;5030981;28;20252;-51
2023/01/20 03:47:14;;;;;;;101.37;80.47;;;1.90;99.90;;;;;;5030796;28;20210;-51
2023/01/20 03:49:51;;;;;;;81.80;73.07;;;1.90;99.90;;;;;;5030759;28;20676;-51
2023/01/20 03:52:25;;;;;;;93.73;76.63;;;1.90;99.90;;;;;;5030853;28;20209;-50
2023/01/20 03:55:16;;;;;;;80.97;59.37;;;1.90;99.90;;;;;;5024705;28;20229;-50
2023/01/20 03:57:51;;;;;;;111.57;98.10;;;1.90;99.90;;;;;;5030851;28;20214;-51
2023/01/20 04:00:23;;;;;;;139.37;125.20;;;1.90;99.90;;;;;;5030919;28;20319;-51
2023/01/20 04:02:54;;;;;;;80.20;60.60;;;1.90;99.90;;;;;;5022884;28;20684;-51
2023/01/20 04:05:22;;;;;;;74.87;55.70;;;1.90;99.90;;;;;;5030791;28;20198;-51
2023/01/20 04:07:56;;;;;;;99.03;88.50;;;1.90;99.90;;;;;;5030743;28;20242;-50
2023/01/20 04:10:25;;;;;;;97.20;85.90;;;1.90;99.90;;;;;;5027358;28;20301;-50
2023/01/20 04:12:53;;;;;;;118.27;95.07;;;1.90;99.90;;;;;;5024246;28;20250;-52
2023/01/20 04:15:23;;;;;;;136.87;107.20;;;1.80;99.90;;;;;;5019793;28;20257;-51
2023/01/20 04:17:51;;;;;;;230.30;144.43;;;1.80;99.90;;;;;;5030076;28;20238;-50
2023/01/20 04:20:19;;;;;;;130.00;106.83;;;1.80;99.90;;;;;;5019719;28;20288;-50
2023/01/20 04:22:50;;;;;;;113.70;83.70;;;1.70;99.90;;;;;;5030054;28;20297;-51
2023/01/20 04:25:25;;;;;;;96.53;65.03;;;1.80;99.90;;;;;;5030071;28;20265;-50
2023/01/20 04:27:53;;;;;;;116.40;86.30;;;1.80;99.90;;;;;;5030330;28;20394;-51
2023/01/20 04:30:21;;;;;;;97.40;73.30;;;1.80;99.90;;;;;;5029814;28;20313;-51
2023/01/20 04:32:49;;;;;;;97.20;66.93;;;1.80;99.90;;;;;;5030000;28;20220;-50
2023/01/20 04:35:19;;;;;;;123.27;98.83;;;1.90;99.90;;;;;;5028388;28;20297;-51
2023/01/20 04:37:47;;;;;;;70.30;50.57;;;1.90;99.90;;;;;;5018480;28;20244;-50
2023/01/20 04:40:16;;;;;;;95.10;84.63;;;1.80;99.90;;;;;;5023069;28;20273;-51
2023/01/20 04:42:45;;;;;;;114.27;91.90;;;1.80;99.90;;;;;;5029748;28;20290;-50
2023/01/20 04:45:16;;;;;;;101.13;84.33;;;1.80;99.90;;;;;;5028996;28;20668;-51
2023/01/20 04:47:44;;;;;;;94.47;80.97;;;1.80;99.90;;;;;;5016771;28;20705;-50
2023/01/20 04:50:14;;;;;;;83.07;59.43;;;1.80;99.90;;;;;;5030013;28;20257;-51
2023/01/20 04:52:42;;;;;;;98.07;81.13;;;1.80;99.90;;;;;;5029520;28;20246;-51
2023/01/20 04:55:11;;;;;;;106.70;88.50;;;1.80;99.90;;;;;;5029574;28;20206;-50
2023/01/20 04:57:39;;;;;;;116.97;83.40;;;1.80;99.90;;;;;;5029742;28;20234;-50
2023/01/20 05:00:11;;;;;;;133.13;119.87;;;1.70;99.90;;;;;;5029821;28;20260;-50
2023/01/20 05:02:39;;;;;;;104.70;94.00;;;1.60;99.90;;;;;;5027121;28;20304;-50
2023/01/20 05:05:07;;;;;;;98.73;85.20;;;1.50;99.90;;;;;;5029554;28;20236;-51
2023/01/20 05:07:35;;;;;;;165.70;124.00;;;1.50;99.90;;;;;;5029495;28;20240;-50
2023/01/20 05:10:04;;;;;;;114.43;93.77;;;1.40;99.90;;;;;;5028892;28;20307;-50
2023/01/20 05:12:32;;;;;;;82.93;74.03;;;1.40;99.90;;;;;;5029421;28;20249;-50
2023/01/20 05:15:00;;;;;;;100.93;83.40;;;1.40;99.90;;;;;;5028761;28;20238;-52
2023/01/20 05:17:29;;;;;;;101.63;86.43;;;1.40;99.90;;;;;;5024358;28;20320;-50
2023/01/20 05:19:57;;;;;;;69.20;50.57;;;1.40;99.90;;;;;;5025214;28;20250;-50
2023/01/20 05:22:25;;;;;;;105.07;92.87;;;1.40;99.90;;;;;;5029023;28;20672;-53
2023/01/20 05:24:53;;;;;;;102.83;82.73;;;1.50;99.90;;;;;;5029235;28;20307;-50
2023/01/20 05:27:21;;;;;;;164.93;141.13;;;1.40;99.90;;;;;;5029428;28;20285;-50
2023/01/20 05:29:49;;;;;;;103.60;78.70;;;1.40;99.90;;;;;;5028252;28;20237;-50
2023/01/20 05:32:17;;;;;;;95.90;81.97;;;1.30;99.90;;;;;;5029103;28;20240;-50
2023/01/20 05:34:46;;;;;;;124.97;107.73;;;1.20;99.90;;;;;;5029055;28;20233;-50
2023/01/20 05:37:17;;;;;;;107.17;86.70;;;1.10;99.90;;;;;;5028246;28;20799;-50
2023/01/20 05:39:45;;;;;;;177.03;138.73;;;1.10;99.90;;;;;;5023447;28;20258;-50
2023/01/20 05:42:13;;;;;;;89.40;66.80;;;1.10;99.90;;;;;;5028763;28;20690;-50
2023/01/20 05:44:41;;;;;;;134.73;120.60;;;1.10;99.90;;;;;;5028898;28;20657;-50
2023/01/20 05:47:09;;;;;;;122.40;95.80;;;1.10;99.90;;;;;;5021764;28;20236;-50
2023/01/20 05:49:37;;;;;;;101.20;74.10;;;1.10;99.90;;;;;;5029115;28;20696;-51
2023/01/20 05:52:06;;;;;;;146.50;112.83;;;1.10;99.90;;;;;;5028888;28;20610;-50
2023/01/20 05:54:34;;;;;;;110.93;99.00;;;1.10;99.90;;;;;;5029006;28;20293;-51
2023/01/20 05:57:04;;;;;;;121.93;104.47;;;1.00;99.90;;;;;;5029024;28;20317;-50
2023/01/20 05:59:32;;;;;;;82.57;61.33;;;1.00;99.90;;;;;;5028706;28;20259;-50
2023/01/20 06:02:00;;;;;;;135.73;114.60;;;1.00;99.90;;;;;;5028857;28;20212;-50
2023/01/20 06:04:28;;;;;;;123.10;103.47;;;0.90;99.90;;;;;;5028892;28;20288;-53
2023/01/20 06:06:56;;;;;;;188.27;152.40;;;0.90;99.90;;;;;;5028810;28;20248;-52
2023/01/20 06:09:26;;;;;;;294.73;130.73;;;0.90;99.90;;;;;;5028518;28;20819;-53
2023/01/20 06:11:54;;;;;;;128.10;88.13;;;0.80;99.90;;;;;;5028100;28;20245;-53
2023/01/20 06:14:22;;;;;;;99.00;62.03;;;0.90;99.90;;;;;;5028851;28;20253;-54
2023/01/20 06:16:50;;;;;;;173.83;93.50;;;0.90;99.90;;;;;;5020395;28;20265;-53
2023/01/20 06:19:18;;;;;;;151.00;125.07;;;1.00;99.90;;;;;;5028681;28;20304;-53
2023/01/20 06:21:47;;;;;;;424.57;142.00;;;1.10;99.90;;;;;;5028901;28;20285;-54
2023/01/20 06:24:15;;;;;;;208.03;155.77;;;1.00;99.90;;;;;;5028907;28;20673;-52
2023/01/20 06:26:45;;;;;;;196.17;134.10;;;1.00;99.90;;;;;;5028765;28;20241;-53
2023/01/20 06:29:13;;;;;;;175.60;118.07;;;1.00;99.90;;;;;;5029068;28;20207;-53
2023/01/20 06:31:41;;;;;;;89.13;57.73;;;1.10;99.90;;;;;;5028929;28;20208;-53
2023/01/20 06:34:10;;;;;;;402.57;184.97;;;1.00;99.90;;;;;;5028828;28;20202;-53
2023/01/20 06:36:38;;;;;;;211.87;119.43;;;0.90;99.90;;;;;;5025068;28;20313;-53
2023/01/20 06:39:06;;;;;;;264.30;192.67;;;0.90;99.90;;;;;;5028069;28;20211;-53
2023/01/20 06:41:34;;;;;;;223.90;167.30;;;0.90;99.90;;;;;;5030053;28;20894;-53
2023/01/20 06:44:04;;;;;;;133.87;105.27;;;0.80;99.90;;;;;;5032122;28;20233;-53
2023/01/20 06:46:32;;;;;;;528.37;149.33;;;0.80;99.90;;;;;;5032639;28;20290;-53
2023/01/20 06:49:00;;;;;;;390.83;149.57;;;0.80;99.90;;;;;;5033531;28;20403;-53
2023/01/20 06:51:29;;;;;;;785.07;237.37;;;0.70;99.90;;;;;;5029275;28;20236;-52
2023/01/20 06:53:58;;;;;;;75.93;64.03;;;0.80;99.90;;;;;;5030110;28;20697;-52
2023/01/20 06:56:26;;;;;;;124.87;109.60;;;0.80;99.90;;;;;;5031725;28;20748;-53
2023/01/20 06:58:54;;;;;;;141.13;103.63;;;0.80;99.90;;;;;;5032010;28;20262;-52
2023/01/20 07:01:27;;;;;;;271.40;184.07;;;0.90;99.90;;;;;;5030649;28;20260;-53
2023/01/20 07:03:56;;;;;;;177.57;131.17;;;0.90;99.90;;;;;;5025522;28;20285;-53
2023/01/20 07:06:28;;;;;;;239.40;126.50;;;0.90;99.90;;;;;;5031638;28;20208;-53
2023/01/20 07:08:57;;;;;;;139.20;124.33;;;0.90;99.90;;;;;;5031639;28;20246;-53
2023/01/20 07:11:25;;;;;;;168.93;104.47;;;0.90;99.90;;;;;;5031506;28;20706;-53
2023/01/20 07:13:54;;;;;;;255.70;178.43;;;0.90;99.90;;;;;;5030125;28;20294;-53
2023/01/20 07:16:22;;;;;;;159.50;125.67;;;0.80;99.90;;;;;;5025905;28;20236;-53
2023/01/20 07:18:52;;;;;;;153.60;130.33;;;0.80;99.90;;;;;;5030723;28;20230;-54
2023/01/20 07:21:20;;;;;;;110.10;98.90;;;0.80;99.90;;;;;;5031837;28;20291;-54
2023/01/20 07:23:52;;;;;;;64.90;56.27;;;0.90;99.90;;;;;;5022840;28;20240;-53
2023/01/20 07:26:21;;;;;;;150.93;109.53;;;0.90;99.90;;;;;;5031523;28;20760;-53
2023/01/20 07:28:50;;;;;;;140.27;125.67;;;1.00;99.90;;;;;;5031489;28;20275;-54
2023/01/20 07:31:22;;;;;;;95.60;72.83;;;1.00;99.90;;;;;;5030961;28;20265;-52
2023/01/20 07:33:51;;;;;;;129.07;114.83;;;0.90;99.90;;;;;;5031060;28;20204;-50
2023/01/20 07:36:19;;;;;;;214.13;121.20;;;0.90;99.90;;;;;;5027988;28;20214;-52
2023/01/20 07:38:48;;;;;;;145.77;131.73;;;1.00;99.90;;;;;;5030651;28;20280;-51
2023/01/20 07:41:18;;;;;;;149.70;80.53;;;1.00;99.90;;;;;;5031008;28;20307;-53
2023/01/20 07:43:48;;;;;;;134.93;121.40;;;0.90;99.90;;;;;;5019580;28;20218;-52
2023/01/20 07:46:16;;;;;;;179.23;162.00;;;1.00;99.90;;;;;;5030870;28;20206;-54
2023/01/20 07:48:45;;;;;;;77.27;59.27;;;1.00;99.90;;;;;;5019025;28;20238;-53
2023/01/20 07:51:16;;;;;;;150.87;128.97;;;1.00;99.90;;;;;;5030284;28;20298;-52
2023/01/20 07:53:45;;;;;;;171.37;108.63;;;1.00;99.90;;;;;;5029014;28;20699;-55
2023/01/20 07:56:15;;;;;;;299.50;191.80;;;0.90;99.90;;;;;;5030540;28;20210;-53
2023/01/20 07:58:44;;;;;;;193.87;134.80;;;0.80;99.90;;;;;;5030693;28;20265;-53
2023/01/20 08:01:15;;;;;;;407.00;186.80;;;1.00;99.90;;;;;;5023338;28;20250;-53
2023/01/20 08:03:44;;;;;;;218.17;126.73;;;0.80;99.90;;;;;;5030386;28;20240;-53
2023/01/20 08:06:15;;;;;;;121.07;99.87;;;0.80;99.90;;;;;;5030730;28;20263;-53
2023/01/20 08:08:43;;;;;;;134.87;100.73;;;0.90;99.90;;;;;;5030679;28;20206;-54
2023/01/20 08:11:13;;;;;;;350.70;188.27;;;1.00;99.90;;;;;;5030737;28;20273;-53
2023/01/20 08:13:42;;;;;;;123.30;108.90;;;1.00;99.90;;;;;;5030259;28;20251;-54
2023/01/20 08:16:12;;;;;;;77.57;64.30;;;1.00;99.90;;;;;;5030377;28;20251;-54
2023/01/20 08:18:40;;;;;;;104.53;93.60;;;1.10;99.90;;;;;;5016607;28;20236;-53
2023/01/20 08:21:19;;;;;;;160.87;135.20;;;1.20;99.90;;;;;;5030138;28;20676;-54
2023/01/20 08:23:47;;;;;;;220.33;176.10;;;1.30;99.90;;;;;;5030136;28;20245;-54
2023/01/20 08:26:16;;;;;;;166.77;145.63;;;1.10;99.90;;;;;;5029602;28;20326;-55
2023/01/20 08:28:47;;;;;;;83.40;60.00;;;1.20;99.90;;;;;;5030332;28;20201;-54
2023/01/20 08:31:18;;;;;;;138.83;99.03;;;1.10;99.90;;;;;;5021866;28;20315;-53
2023/01/20 08:33:46;;;;;;;171.77;146.63;;;1.20;99.90;;;;;;5029419;28;20276;-53
2023/01/20 08:36:16;;;;;;;144.93;122.80;;;1.20;99.90;;;;;;5030080;28;20218;-53
2023/01/20 08:38:47;;;;;;;114.97;75.33;;;1.30;99.90;;;;;;5029186;28;20226;-53
2023/01/20 08:41:17;;;;;;;118.67;100.17;;;1.30;99.90;;;;;;5029921;28;20719;-53
2023/01/20 08:43:45;;;;;;;102.33;91.73;;;1.30;99.90;;;;;;5026684;28;20236;-52
2023/01/20 08:46:16;;;;;;;145.30;109.80;;;1.30;99.90;;;;;;5029777;28;20579;-53
2023/01/20 08:48:44;;;;;;;166.37;132.93;;;1.40;99.90;;;;;;5030073;28;20203;-53
2023/01/20 08:51:15;;;;;;;238.83;137.67;;;1.50;99.90;;;;;;5029967;28;20268;-52
2023/01/20 08:53:43;;;;;;;200.07;140.83;;;1.50;99.90;;;;;;5029824;28;20233;-53
2023/01/20 08:56:14;;;;;;;85.87;64.37;;;1.40;99.90;;;;;;5029508;28;20237;-53
2023/01/20 08:58:43;;;;;;;69.43;55.10;;;1.50;99.90;;;;;;5024802;28;20237;-54
2023/01/20 09:01:12;;;;;;;177.67;122.43;;;1.60;99.90;;;;;;5028947;28;20260;-53
2023/01/20 09:03:41;;;;;;;97.00;87.27;;;1.70;99.90;;;;;;5029558;28;20221;-54
2023/01/20 09:06:26;;;;;;;267.90;225.50;;;1.70;99.90;;;;;;5029921;28;20295;-53
2023/01/20 09:08:54;;;;;;;267.00;236.60;;;1.70;99.90;;;;;;5029462;28;20250;-53
2023/01/20 09:11:25;;;;;;;99.97;89.83;;;1.50;99.90;;;;;;5029293;28;20729;-53
2023/01/20 09:13:54;;;;;;;105.90;95.17;;;1.60;99.90;;;;;;5029358;28;20595;-53
2023/01/20 09:16:24;;;;;;;118.60;88.60;;;1.60;99.90;;;;;;5016779;28;20207;-54
2023/01/20 09:18:52;;;;;;;126.60;101.30;;;1.70;99.90;;;;;;5029636;28;20707;-53
2023/01/20 09:21:20;;;;;;;132.83;119.37;;;1.70;99.90;;;;;;5023612;28;20226;-53
2023/01/20 09:23:48;;;;;;;156.93;140.47;;;1.70;99.90;;;;;;5029031;28;20245;-53
2023/01/20 09:26:16;;;;;;;92.60;69.13;;;1.70;99.90;;;;;;5029621;28;20242;-52
2023/01/20 09:29:09;;;;;;;105.00;94.50;;;1.70;99.90;;;;;;5029248;28;20224;-54
2023/01/20 09:31:38;;;;;;;188.50;169.13;;;1.70;99.90;;;;;;5029503;28;20223;-54
2023/01/20 09:34:06;;;;;;;189.20;115.63;;;1.80;99.90;;;;;;5029136;28;20213;-53
2023/01/20 09:36:34;;;;;;;166.17;149.40;;;1.80;99.90;;;;;;5029257;28;20272;-54
2023/01/20 09:44:47;;;;;;;159.60;144.93;;;1.70;99.90;;;;;;5029122;28;20265;-52
2023/01/20 09:47:25;;;;;;;228.17;194.67;;;1.60;99.90;;;;;;5028953;28;20210;-53
2023/01/20 09:53:19;;;;;;;335.47;244.13;;;1.50;99.90;;;;;;5018270;28;20248;-53
2023/01/20 09:55:50;;;;;;;303.30;267.10;;;1.40;99.90;;;;;;5029334;28;20243;-53
2023/01/20 09:58:27;;;;;;;152.10;102.57;;;1.50;99.90;;;;;;5028954;28;20264;-52
2023/01/20 10:01:06;;;;;;;192.17;163.40;;;1.40;99.90;;;;;;5027756;28;20257;-53
2023/01/20 10:03:40;;;;;;;205.77;144.13;;;1.50;99.90;;;;;;5020259;28;20221;-53
2023/01/20 10:06:12;;;;;;;166.97;150.17;;;1.50;99.90;;;;;;5029369;28;20255;-53
2023/01/20 10:08:48;;;;;;;143.93;113.03;;;1.50;99.90;;;;;;5029075;28;20238;-53
2023/01/20 10:11:36;;;;;;;132.07;115.27;;;1.70;99.90;;;;;;5027717;28;20259;-53
2023/01/20 10:14:13;;;;;;;417.60;228.70;;;2.00;99.90;;;;;;5022014;28;20271;-53
2023/01/20 10:16:49;;;;;;;224.90;173.03;;;2.10;99.90;;;;;;5028413;28;20203;-53
2023/01/20 10:19:26;;;;;;;218.17;180.03;;;2.30;99.90;;;;;;5027976;28;20316;-53
2023/01/20 10:22:04;;;;;;;242.37;139.20;;;2.30;99.90;;;;;;5032506;28;20202;-53
2023/01/20 10:24:36;;;;;;;250.70;209.57;;;2.30;99.90;;;;;;5032939;28;20206;-54
2023/01/20 10:27:05;;;;;;;309.50;186.50;;;2.20;99.90;;;;;;5032904;28;20217;-54
2023/01/20 10:29:36;;;;;;;118.33;82.53;;;2.00;99.90;;;;;;5032641;28;20227;-54
2023/01/20 10:32:12;;;;;;;175.07;132.13;;;2.10;99.90;;;;;;5032237;28;20236;-50
2023/01/20 10:34:45;;;;;;;279.33;164.50;;;2.00;99.90;;;;;;5032477;28;20289;-52
2023/01/20 10:37:15;;;;;;;381.83;193.87;;;2.00;99.90;;;;;;5031624;28;20579;-54
2023/01/20 10:39:49;;;;;;;133.07;113.20;;;2.00;99.90;;;;;;5032203;28;20932;-53
2023/01/20 10:42:18;;;;;;;241.83;149.97;;;2.10;99.90;;;;;;5031744;28;20260;-53
2023/01/20 10:44:49;;;;;;;215.90;172.00;;;2.10;99.90;;;;;;5032594;28;20547;-53
2023/01/20 10:47:39;;;;;;;139.43;126.97;;;2.10;99.90;;;;;;5029403;28;20206;-54
2023/01/20 10:50:27;;;;;;;100.37;86.33;;;2.20;99.90;;;;;;5032145;28;20251;-53
2023/01/20 10:53:10;;;;;;;296.20;215.83;;;2.20;99.90;;;;;;5019601;28;20340;-53
2023/01/20 10:55:51;;;;;;;179.63;161.33;;;2.30;99.90;;;;;;5031610;28;20203;-52
2023/01/20 10:58:24;;;;;;;381.87;164.23;;;2.30;99.90;;;;;;5031097;28;20260;-53
2023/01/20 11:00:52;;;;;;;324.77;222.60;;;2.30;99.90;;;;;;5031456;28;20250;-53
2023/01/20 11:03:23;;;;;;;1099.47;380.57;;;2.50;99.90;;;;;;5031226;28;20217;-53
2023/01/20 11:05:52;;;;;;;668.30;221.93;;;2.60;99.90;;;;;;5032260;28;20607;-53
2023/01/20 11:08:30;;;;;;;825.63;290.07;;;2.40;99.90;;;;;;5019434;28;20241;-53
2023/01/20 11:11:00;;;;;;;301.53;196.00;;;2.30;99.90;;;;;;5031607;28;20787;-53
2023/01/20 11:13:28;;;;;;;666.30;236.97;;;2.10;99.90;;;;;;5031319;28;20707;-53
2023/01/20 11:16:01;;;;;;;371.27;169.70;;;2.00;99.90;;;;;;5031955;28;20242;-53
2023/01/20 11:18:31;;;;;;;464.57;245.17;;;2.10;99.90;;;;;;5031093;28;20205;-53
2023/01/20 11:21:02;;;;;;;518.03;285.40;;;2.10;99.90;;;;;;5031244;28;20261;-53
2023/01/20 11:23:36;;;;;;;548.37;200.73;;;2.20;99.90;;;;;;5031340;28;20304;-53
2023/01/20 11:26:09;;;;;;;210.17;136.73;;;2.30;99.90;;;;;;5026533;28;20751;-54
2023/01/20 11:28:47;;;;;;;631.23;236.53;;;2.40;99.90;;;;;;5029996;28;20622;-54
2023/01/20 11:31:15;;;;;;;149.43;126.07;;;2.70;99.90;;;;;;5024748;28;20255;-55
2023/01/20 11:33:58;;;;;;;446.37;180.60;;;2.60;99.90;;;;;;5028476;28;20230;-53
2023/01/20 11:36:26;;;;;;;190.07;131.17;;;2.60;99.90;;;;;;5031020;28;20210;-53
2023/01/20 11:38:56;;;;;;;160.37;133.83;;;2.50;99.90;;;;;;5029534;28;20234;-53
2023/01/20 11:41:27;;;;;;;452.87;294.97;;;2.40;99.90;;;;;;5030613;28;20723;-53
2023/01/20 11:43:57;;;;;;;184.67;161.37;;;2.40;99.90;;;;;;5030588;28;20716;-53
2023/01/20 11:46:29;;;;;;;603.00;247.10;;;2.40;99.90;;;;;;5030615;28;20281;-53
2023/01/20 11:49:14;;;;;;;217.17;167.53;;;2.30;99.90;;;;;;5030697;28;20210;-53
2023/01/20 11:51:51;;;;;;;146.03;130.17;;;2.30;99.90;;;;;;5030460;28;20737;-53
2023/01/20 11:54:21;;;;;;;93.37;78.77;;;2.30;99.90;;;;;;5030947;28;20609;-53
2023/01/20 11:56:53;;;;;;;1037.00;291.27;;;2.30;99.90;;;;;;5030764;28;20263;-53
2023/01/20 11:59:26;;;;;;;728.00;228.60;;;2.30;99.90;;;;;;5030667;28;20262;-53
2023/01/20 12:01:59;;;;;;;403.00;209.40;;;2.30;99.90;;;;;;5029678;28;20211;-53
2023/01/20 12:04:49;;;;;;;545.23;176.47;;;2.30;99.90;;;;;;5030863;28;20210;-53
2023/01/20 12:07:23;;;;;;;416.07;225.03;;;2.30;99.90;;;;;;5019687;28;20238;-53
2023/01/20 12:09:54;;;;;;;654.93;240.13;;;2.50;99.90;;;;;;5017368;28;20239;-53
2023/01/20 12:12:32;;;;;;;1439.67;331.27;;;2.60;99.90;;;;;;5021326;28;20766;-53
2023/01/20 12:15:05;;;;;;;183.03;162.80;;;2.50;99.90;;;;;;5030758;28;20290;-53
2023/01/20 12:17:41;;;;;;;816.67;296.23;;;2.70;99.90;;;;;;5029916;28;20292;-53
2023/01/20 12:20:19;;;;;;;263.47;166.77;;;2.80;99.90;;;;;;5030158;28;20732;-53
2023/01/20 12:22:58;;;;;;;1223.20;352.00;;;3.00;99.90;;;;;;5029103;28;20296;-53
2023/01/20 12:25:30;;;;;;;488.87;195.37;;;3.00;99.90;;;;;;5029738;28;20575;-53
2023/01/20 12:28:04;;;;;;;912.27;410.37;;;2.90;99.90;;;;;;5029954;28;20302;-53
2023/01/20 12:31:02;;;;;;;216.00;146.47;;;2.90;99.90;;;;;;5037195;28;20735;-53
2023/01/20 12:33:32;;;;;;;390.60;207.67;;;2.90;99.90;;;;;;5029600;28;20246;-54
2023/01/20 12:36:43;;;;;;;277.10;193.07;;;3.10;99.90;;;;;;5030460;28;20313;-52
2023/01/20 12:39:30;;;;;;;609.37;251.57;;;3.10;99.90;;;;;;5020314;28;20291;-52
2023/01/20 12:42:36;;;;;;;1203.27;415.20;;;3.00;99.90;;;;;;5024963;28;20206;-53
2023/01/20 12:45:19;;;;;;;916.30;371.47;;;3.10;99.90;;;;;;5016256;28;20288;-52
2023/01/20 12:47:59;;;;;;;1077.60;457.97;;;3.10;99.90;;;;;;5029133;28;20203;-52
2023/01/20 12:50:36;;;;;;;612.37;328.23;;;3.00;99.90;;;;;;5026673;28;20243;-53
2023/01/20 12:53:21;;;;;;;646.60;274.30;;;3.00;99.90;;;;;;5029608;28;20647;-53
2023/01/20 12:56:00;;;;;;;757.33;376.10;;;3.00;99.90;;;;;;5029722;28;20238;-53